Time;durP1;ratioP1;P1;durP2;ratioP2;P2;SDS_P1;SDS_P2;PMS_P1;PMS_P2;Temp;Humidity;BMP_temperature;BMP_pressure;BME280_temperature;BME280_humidity;BME280_pressure;Samples;Min_cycle;Max_cycle;Signal;HPM_P1;HPM_P2
2021/12/08 00:01:08;;;;;;;2.60;0.60;;;5.30;99.90;;;5.44;68.59;99043.59;5049523;28;20732;-68
2021/12/08 00:03:35;;;;;;;0.50;0.50;;;5.30;99.90;;;5.44;69.63;99041.03;5048338;28;20223;-67
2021/12/08 00:06:03;;;;;;;0.80;0.80;;;5.30;99.90;;;5.38;70.18;99033.72;5049961;28;20225;-67
2021/12/08 00:08:32;;;;;;;1.00;1.00;;;5.20;99.90;;;5.36;69.44;99036.44;5050140;28;20289;-69
2021/12/08 00:13:35;;;;;;;0.40;0.40;;;5.20;99.90;;;5.20;70.46;99043.69;5042969;28;20285;-68
2021/12/08 00:16:10;;;;;;;0.43;0.43;;;5.10;99.90;;;5.21;70.08;99036.75;5049729;28;20212;-67
2021/12/08 00:18:46;;;;;;;1.05;0.95;;;5.00;99.90;;;5.21;69.22;99047.09;5047172;28;20247;-68
2021/12/08 00:21:15;;;;;;;1.00;1.00;;;5.10;99.90;;;5.17;69.94;99040.53;5049834;28;20213;-67
2021/12/08 00:23:43;;;;;;;0.50;0.50;;;5.00;99.90;;;5.11;70.14;99043.56;5037837;28;20202;-68
2021/12/08 00:26:10;;;;;;;0.50;0.50;;;5.00;99.90;;;5.09;69.32;99048.03;5030668;28;20318;-68
2021/12/08 00:28:37;;;;;;;0.52;0.52;;;4.90;99.90;;;5.08;69.71;99057.53;5039087;28;20716;-67
2021/12/08 00:31:06;;;;;;;0.40;0.40;;;4.90;99.90;;;5.06;69.51;99066.34;5050517;28;20610;-68
2021/12/08 00:33:35;;;;;;;3.10;0.70;;;5.00;99.90;;;5.16;68.80;99069.88;5047928;28;20209;-67
2021/12/08 00:36:09;;;;;;;0.95;0.95;;;5.00;99.90;;;5.06;69.85;99054.25;5047090;28;20236;-67
2021/12/08 00:38:36;;;;;;;1.70;0.60;;;4.90;99.90;;;5.06;70.05;99049.06;5047385;28;20275;-66
2021/12/08 00:41:03;;;;;;;0.82;0.82;;;4.90;99.90;;;5.04;69.80;99044.94;5045948;28;20674;-67
2021/12/08 00:43:30;;;;;;;0.43;0.43;;;4.90;99.90;;;5.03;69.85;99045.88;5048139;28;20193;-67
2021/12/08 00:45:58;;;;;;;0.70;0.65;;;4.90;99.90;;;5.00;69.92;99046.94;5047387;28;20624;-67
2021/12/08 00:48:25;;;;;;;0.70;0.65;;;4.90;99.90;;;4.97;69.24;99048.91;5048701;28;20197;-65
2021/12/08 00:50:52;;;;;;;0.88;0.70;;;4.80;99.90;;;4.94;69.92;99062.09;5049796;28;20836;-66
2021/12/08 00:53:19;;;;;;;0.57;0.57;;;4.80;99.90;;;4.95;69.99;99066.31;5032535;28;20285;-65
2021/12/08 00:55:47;;;;;;;1.52;0.95;;;4.80;99.90;;;4.98;69.60;99063.50;5043554;28;20233;-67
2021/12/08 00:58:14;;;;;;;0.40;0.40;;;4.80;99.90;;;5.06;69.40;99069.75;5039330;28;20200;-65
2021/12/08 01:00:50;;;;;;;0.60;0.60;;;4.90;99.90;;;4.97;70.16;99061.84;5049114;28;20256;-67
2021/12/08 01:03:18;;;;;;;0.80;0.80;;;4.80;99.90;;;4.91;69.98;99075.22;5031047;28;20229;-67
2021/12/08 01:05:51;;;;;;;0.38;0.38;;;4.90;99.90;;;4.95;69.82;99081.81;5049131;28;20292;-67
2021/12/08 01:08:21;;;;;;;0.80;0.80;;;4.80;99.90;;;4.89;70.40;99083.09;5047078;28;20229;-66
2021/12/08 01:10:52;;;;;;;0.30;0.30;;;4.80;99.90;;;4.92;70.49;99090.59;5048697;28;20647;-67
2021/12/08 01:13:21;;;;;;;0.95;0.82;;;4.80;99.90;;;4.91;70.17;99088.13;5048420;28;20300;-67
2021/12/08 01:15:55;;;;;;;0.50;0.30;;;4.80;99.90;;;4.87;71.00;99078.97;5048127;28;20232;-66
2021/12/08 01:18:26;;;;;;;0.60;0.60;;;4.80;99.90;;;4.83;71.50;99075.78;5047307;28;20213;-67
2021/12/08 01:20:56;;;;;;;0.60;0.60;;;4.70;99.90;;;4.81;72.26;99079.41;5047705;28;20232;-67
2021/12/08 01:23:25;;;;;;;0.30;0.30;;;4.70;99.90;;;4.84;72.12;99080.00;5045607;28;20297;-68
2021/12/08 01:25:53;;;;;;;0.60;0.60;;;4.70;99.90;;;4.59;73.75;99091.31;5049672;28;20288;-67
2021/12/08 01:28:22;;;;;;;1.58;1.20;;;4.60;99.90;;;4.71;73.69;99085.25;5048593;28;20685;-64
2021/12/08 01:30:52;;;;;;;0.40;0.40;;;4.60;99.90;;;4.69;73.88;99101.78;5048553;28;20217;-67
2021/12/08 01:33:23;;;;;;;0.70;0.70;;;4.60;99.90;;;4.69;74.30;99105.19;5048801;28;20201;-67
2021/12/08 01:35:52;;;;;;;0.50;0.50;;;4.60;99.90;;;4.81;74.19;99100.09;5035665;28;20662;-65
2021/12/08 01:38:20;;;;;;;0.30;0.30;;;4.70;99.90;;;4.77;74.68;99101.25;5048202;28;20193;-67
2021/12/08 01:40:47;;;;;;;1.45;0.60;;;4.70;99.90;;;4.69;75.38;99092.28;5029238;28;20198;-66
2021/12/08 01:43:26;;;;;;;1.00;1.00;;;4.60;99.90;;;4.60;76.53;99087.78;5025803;28;20297;-66
2021/12/08 01:46:07;;;;;;;0.57;0.57;;;4.50;99.90;;;4.61;76.75;99092.03;5063463;28;20316;-66
2021/12/08 01:48:39;;;;;;;0.95;0.82;;;4.50;99.90;;;4.64;76.46;99075.47;5051300;28;20230;-67
2021/12/08 01:51:14;;;;;;;0.60;0.60;;;4.50;99.90;;;4.63;76.80;99076.41;5052868;28;20204;-67
2021/12/08 01:53:53;;;;;;;0.50;0.50;;;4.50;99.90;;;4.66;75.99;99073.59;5052888;28;20672;-66
2021/12/08 01:56:23;;;;;;;0.85;0.85;;;4.60;99.90;;;4.69;76.44;99066.44;5052339;28;20585;-68
2021/12/08 01:58:52;;;;;;;1.25;1.08;;;4.60;99.90;;;4.64;76.66;99068.53;5052354;28;20669;-65
2021/12/08 02:01:23;;;;;;;0.77;0.77;;;4.60;99.90;;;4.69;77.33;99063.03;5052999;28;20228;-65
2021/12/08 02:03:51;;;;;;;0.73;0.73;;;4.60;99.90;;;4.73;77.42;99061.88;5049163;28;20230;-65
2021/12/08 02:06:19;;;;;;;0.40;0.40;;;4.60;99.90;;;4.63;77.47;99056.56;5046305;28;20316;-66
2021/12/08 02:08:52;;;;;;;0.30;0.30;;;4.50;99.90;;;4.69;78.24;99044.94;5052508;28;20700;-68
2021/12/08 02:11:21;;;;;;;0.50;0.50;;;4.60;99.90;;;4.73;78.18;99039.44;5052295;28;20200;-66
2021/12/08 02:13:52;;;;;;;1.15;1.15;;;4.60;99.90;;;4.71;78.50;99043.91;5046819;28;20209;-66
2021/12/08 02:16:19;;;;;;;0.95;0.95;;;4.60;99.90;;;4.65;79.19;99039.19;5046820;28;20647;-67
2021/12/08 02:18:50;;;;;;;1.05;1.05;;;4.50;99.90;;;4.64;79.84;99047.88;5052325;28;20247;-66
2021/12/08 02:21:27;;;;;;;0.90;0.90;;;4.50;99.90;;;4.56;79.73;99039.84;5052317;28;20229;-66
2021/12/08 02:24:02;;;;;;;1.00;0.88;;;4.50;99.90;;;4.62;79.92;99041.19;5031811;28;20289;-67
2021/12/08 02:26:31;;;;;;;0.50;0.50;;;4.50;99.90;;;4.56;80.51;99028.69;5031567;28;20225;-66
2021/12/08 02:29:03;;;;;;;0.45;0.45;;;4.40;99.90;;;4.60;80.52;99028.34;5051710;28;20362;-66
2021/12/08 02:32:12;;;;;;;0.70;0.70;;;4.50;99.90;;;4.52;81.17;99029.84;5043086;28;20206;-66
2021/12/08 02:48:32;;;;;;;0.40;0.40;;;4.40;99.90;;;4.46;82.34;99010.47;5050564;28;20224;-66
2021/12/08 02:51:00;;;;;;;0.73;0.73;;;4.40;99.90;;;4.49;81.89;99002.47;5047000;28;20308;-65
2021/12/08 02:53:27;;;;;;;0.70;0.70;;;4.40;99.90;;;4.42;83.00;99013.38;5045874;28;20685;-66
2021/12/08 02:55:54;;;;;;;0.77;0.77;;;4.40;99.90;;;4.42;82.68;99008.22;5048861;28;20776;-67
2021/12/08 02:58:21;;;;;;;0.60;0.60;;;4.40;99.90;;;4.39;83.21;99005.84;5049923;28;20258;-67
2021/12/08 03:01:01;;;;;;;0.65;0.65;;;4.30;99.90;;;4.38;83.00;99010.22;5050909;28;20211;-65
2021/12/08 03:03:28;;;;;;;2.42;0.75;;;4.30;99.90;;;4.41;83.60;99019.47;5051529;28;20230;-65
2021/12/08 03:05:55;;;;;;;0.73;0.73;;;4.30;99.90;;;4.41;84.03;99015.13;5049841;28;20228;-67
2021/12/08 03:08:22;;;;;;;0.98;0.98;;;4.30;99.90;;;4.44;83.71;99014.94;5049482;28;20760;-66
2021/12/08 03:10:53;;;;;;;1.50;1.50;;;4.30;99.90;;;4.33;84.78;99025.19;5050581;28;20568;-66
2021/12/08 03:13:37;;;;;;;0.52;0.52;;;4.20;99.90;;;4.40;84.66;99018.66;5049386;28;20307;-66
2021/12/08 03:16:07;;;;;;;0.50;0.50;;;4.30;99.90;;;4.36;84.69;99024.16;5037213;28;20229;-67
2021/12/08 03:18:37;;;;;;;0.77;0.68;;;4.30;99.90;;;4.38;84.89;99032.63;5052031;28;20288;-66
2021/12/08 03:21:08;;;;;;;0.30;0.30;;;4.30;99.90;;;4.40;85.16;99023.84;5050922;28;20280;-67
2021/12/08 03:23:54;;;;;;;0.52;0.50;;;4.30;99.90;;;4.39;85.51;99023.91;5048021;28;20308;-66
2021/12/08 03:26:29;;;;;;;0.50;0.47;;;4.30;99.90;;;4.46;85.49;99022.56;5047317;28;20218;-66
2021/12/08 03:29:05;;;;;;;0.43;0.43;;;4.30;99.90;;;4.45;85.40;99031.25;5050008;28;20197;-67
2021/12/08 03:31:39;;;;;;;0.55;0.55;;;4.30;99.90;;;4.41;85.92;99028.03;5050686;28;20197;-67
2021/12/08 03:34:07;;;;;;;0.70;0.70;;;4.30;99.90;;;4.44;85.54;99027.84;5048528;28;20319;-68
2021/12/08 03:36:34;;;;;;;0.82;0.82;;;4.30;99.90;;;4.47;85.42;99034.53;5049179;28;20312;-67
2021/12/08 03:39:02;;;;;;;0.88;0.40;;;4.30;99.90;;;4.46;85.62;99020.81;5050983;28;20209;-65
2021/12/08 03:41:33;;;;;;;0.30;0.30;;;4.40;99.90;;;4.41;85.65;99012.56;5050152;28;20233;-66
2021/12/08 03:44:03;;;;;;;0.60;0.60;;;4.30;99.90;;;4.48;85.88;99024.09;5050778;28;20205;-66
2021/12/08 03:46:38;;;;;;;1.23;1.10;;;4.40;99.90;;;4.49;85.63;99017.97;5049933;28;20316;-66
2021/12/08 03:49:10;;;;;;;0.73;0.73;;;4.40;99.90;;;4.52;85.31;99015.19;5048739;28;20251;-67
2021/12/08 03:51:38;;;;;;;0.95;0.95;;;4.40;99.90;;;4.50;85.92;99024.81;5052047;28;20556;-65
2021/12/08 03:54:06;;;;;;;0.55;0.50;;;4.40;99.90;;;4.53;85.63;99021.19;5049412;28;20209;-65
2021/12/08 03:56:33;;;;;;;0.50;0.50;;;4.40;99.90;;;4.52;85.98;99016.94;5047989;28;20616;-65
2021/12/08 03:59:00;;;;;;;0.50;0.50;;;4.40;99.90;;;4.53;86.29;99027.19;5049862;28;20229;-66
2021/12/08 04:01:27;;;;;;;0.40;0.40;;;4.40;99.90;;;4.51;86.34;99020.47;5048404;28;20572;-67
2021/12/08 04:04:00;;;;;;;0.40;0.40;;;4.40;99.90;;;4.54;86.39;99023.66;5050322;28;20202;-66
2021/12/08 04:06:32;;;;;;;0.30;0.30;;;4.40;99.90;;;4.55;85.90;99017.56;5050266;28;20221;-66
2021/12/08 04:09:03;;;;;;;0.45;0.45;;;4.40;99.90;;;4.53;86.47;99013.44;5043883;28;20634;-67
2021/12/08 04:11:30;;;;;;;1.33;0.90;;;4.40;99.90;;;4.52;86.50;99017.78;5048221;28;20712;-67
2021/12/08 04:14:03;;;;;;;0.50;0.50;;;4.40;99.90;;;4.48;86.55;99016.34;5050020;28;20224;-67
2021/12/08 04:16:38;;;;;;;1.48;1.05;;;4.40;99.90;;;4.54;86.84;99023.66;5049132;28;20210;-67
2021/12/08 04:19:08;;;;;;;0.57;0.57;;;4.40;99.90;;;4.60;86.67;99012.03;5048833;28;20219;-67
2021/12/08 04:21:37;;;;;;;0.60;0.60;;;4.50;99.90;;;4.62;86.71;99007.59;5049061;28;20204;-66
2021/12/08 04:24:06;;;;;;;0.60;0.60;;;4.50;99.90;;;4.66;86.45;99006.44;5050157;28;20673;-67
2021/12/08 04:26:55;;;;;;;1.13;1.13;;;4.50;99.90;;;4.70;86.16;99008.69;5049901;28;20801;-68
2021/12/08 04:29:30;;;;;;;0.30;0.30;;;4.60;99.90;;;4.59;86.69;99015.56;5035394;28;20201;-66
2021/12/08 04:31:59;;;;;;;8.07;0.90;;;4.50;99.90;;;4.70;86.46;99000.94;5047701;28;20276;-67
2021/12/08 04:37:20;;;;;;;0.63;0.63;;;4.50;99.90;;;4.68;86.05;98986.50;5023717;28;20221;-62
2021/12/08 04:40:28;;;;;;;0.75;0.40;;;4.60;99.90;;;4.63;86.42;98997.16;5023485;28;20217;-62
2021/12/08 05:10:23;;;;;;;1.08;0.95;;;4.50;99.90;;;4.68;86.58;99020.88;5009391;28;20213;-62
2021/12/08 05:12:52;;;;;;;1.52;0.50;;;4.60;99.90;;;4.65;86.58;99018.53;5010119;28;20298;-62
2021/12/08 05:15:29;;;;;;;0.60;0.60;;;4.50;99.90;;;4.73;86.23;99012.78;5009219;28;20341;-62
2021/12/08 05:18:13;;;;;;;0.40;0.40;;;4.60;99.90;;;4.68;86.35;99022.66;5010130;28;20233;-62
2021/12/08 05:20:43;;;;;;;0.80;0.80;;;4.60;99.90;;;4.73;86.56;99029.13;5009376;28;20202;-62
2021/12/08 05:23:19;;;;;;;2.25;0.57;;;4.60;99.90;;;4.66;86.88;99027.09;5012118;28;20194;-62
2021/12/08 05:25:46;;;;;;;1.63;1.08;;;4.60;99.90;;;4.71;86.81;99017.25;5009390;28;20225;-62
2021/12/08 05:28:19;;;;;;;1.60;0.90;;;4.60;99.90;;;4.72;86.89;99019.75;5010804;28;20210;-63
2021/12/08 05:31:10;;;;;;;0.60;0.60;;;4.60;99.90;;;4.67;87.15;99032.16;5010070;28;20679;-62
2021/12/08 05:33:43;;;;;;;0.80;0.45;;;4.50;99.90;;;4.67;87.10;99031.31;5009097;28;20234;-62
2021/12/08 05:36:13;;;;;;;0.63;0.63;;;4.60;99.90;;;4.69;87.21;99044.94;5009288;28;20789;-62
2021/12/08 05:38:41;;;;;;;1.35;1.35;;;4.60;99.90;;;4.72;87.31;99037.00;5009419;28;20305;-63
2021/12/08 05:41:17;;;;;;;0.38;0.38;;;4.60;99.90;;;4.73;86.96;99042.03;5010494;28;20199;-63
2021/12/08 05:43:46;;;;;;;0.85;0.85;;;4.60;99.90;;;4.73;87.51;99057.53;5009536;28;20205;-63
2021/12/08 05:46:16;;;;;;;0.98;0.98;;;4.60;99.90;;;4.73;87.22;99054.94;5008689;28;20800;-62
2021/12/08 05:48:49;;;;;;;0.70;0.70;;;4.60;99.90;;;4.68;87.44;99054.44;5024401;28;20202;-63
2021/12/08 05:51:22;;;;;;;0.98;0.98;;;4.50;99.90;;;4.75;87.30;99054.03;5009150;28;20253;-63
2021/12/08 05:53:55;;;;;;;1.15;1.15;;;4.60;99.90;;;4.71;87.80;99046.50;5010170;28;20213;-62
2021/12/08 05:56:22;;;;;;;1.02;1.02;;;4.60;99.90;;;4.72;87.82;99035.25;5010032;28;20229;-63
2021/12/08 05:58:55;;;;;;;1.42;1.23;;;4.60;99.90;;;4.70;87.60;99038.88;5009725;28;20338;-63
2021/12/08 06:01:35;;;;;;;1.05;1.05;;;4.60;99.90;;;4.77;87.74;99032.28;5009737;28;20202;-62
2021/12/08 06:04:05;;;;;;;1.80;1.00;;;4.60;99.90;;;4.68;88.41;99028.63;5009803;28;20209;-62
2021/12/08 06:06:33;;;;;;;1.50;1.40;;;4.50;99.90;;;4.68;88.72;99041.53;5008641;28;20317;-62
2021/12/08 06:09:01;;;;;;;0.63;0.63;;;4.50;99.90;;;4.72;88.28;99055.06;5009672;28;20314;-63
2021/12/08 06:11:28;;;;;;;0.80;0.80;;;4.60;99.90;;;4.70;88.57;99047.44;5010375;28;20225;-63
2021/12/08 06:14:00;;;;;;;1.20;1.20;;;4.60;99.90;;;4.71;88.69;99037.91;5009815;28;20309;-63
2021/12/08 06:16:31;;;;;;;0.75;0.75;;;4.60;99.90;;;4.68;88.94;99044.13;5008383;28;20245;-63
2021/12/08 06:19:00;;;;;;;0.55;0.55;;;4.50;99.90;;;4.64;88.97;99040.13;5009879;28;20241;-63
2021/12/08 06:21:30;;;;;;;0.80;0.80;;;4.50;99.90;;;4.64;89.32;99050.44;5009332;28;20700;-63
2021/12/08 06:23:58;;;;;;;2.83;1.27;;;4.50;99.90;;;4.59;89.36;99049.97;5009983;28;20194;-62
2021/12/08 06:26:27;;;;;;;3.25;0.70;;;4.50;99.90;;;4.57;90.09;99054.44;5006675;28;20215;-62
2021/12/08 06:28:56;;;;;;;0.65;0.65;;;4.40;99.90;;;4.50;90.19;99047.22;4988894;28;20290;-62
2021/12/08 06:31:26;;;;;;;0.90;0.80;;;4.40;99.90;;;4.53;90.55;99055.59;5008312;28;20237;-63
2021/12/08 06:33:55;;;;;;;0.73;0.68;;;4.40;99.90;;;4.50;90.83;99058.38;5011023;28;20199;-62
2021/12/08 06:36:28;;;;;;;0.85;0.85;;;4.40;99.90;;;4.46;90.93;99041.47;5013224;28;20245;-62
2021/12/08 06:38:56;;;;;;;1.20;0.98;;;4.30;99.90;;;4.50;91.29;99035.13;5011972;28;20278;-62
2021/12/08 06:41:33;;;;;;;1.35;1.25;;;4.30;99.90;;;4.46;91.47;99023.38;5012086;28;20199;-64
2021/12/08 06:44:10;;;;;;;0.73;0.70;;;4.40;99.90;;;4.47;91.75;99019.06;5013405;28;20208;-64
2021/12/08 06:46:39;;;;;;;1.77;1.67;;;4.30;99.90;;;4.55;91.42;99006.41;5011365;28;20222;-64
2021/12/08 06:49:11;;;;;;;0.57;0.55;;;4.40;99.90;;;4.52;91.64;99001.44;5011695;28;21006;-64
2021/12/08 06:51:49;;;;;;;3.17;1.10;;;4.40;99.90;;;4.51;91.85;99010.16;5012063;28;20288;-64
2021/12/08 06:54:27;;;;;;;5.25;1.00;;;4.40;99.90;;;4.47;92.21;99022.44;5011785;28;20205;-64
2021/12/08 06:57:01;;;;;;;2.38;1.50;;;4.40;99.90;;;4.51;92.14;99041.97;5008235;28;20219;-64
2021/12/08 06:59:34;;;;;;;0.70;0.70;;;4.30;99.90;;;4.50;92.28;99045.47;5020656;28;20198;-64
2021/12/08 07:02:20;;;;;;;3.80;1.60;;;4.40;99.90;;;4.45;92.73;99055.28;5012616;28;20230;-64
2021/12/08 07:05:07;;;;;;;1.00;1.00;;;4.30;99.90;;;4.46;92.96;99059.53;5010396;28;20297;-64
2021/12/08 07:07:37;;;;;;;0.43;0.43;;;4.30;99.90;;;4.40;93.06;99049.66;5009719;28;20663;-64
2021/12/08 07:10:20;;;;;;;3.00;2.00;;;4.30;99.90;;;4.46;93.61;99054.38;5011909;28;20647;-64
2021/12/08 07:13:03;;;;;;;1.67;1.58;;;4.30;99.90;;;4.45;93.29;99046.75;5011971;28;20209;-64
2021/12/08 07:15:39;;;;;;;1.48;1.00;;;4.30;99.90;;;4.49;93.30;99038.63;5012362;28;20230;-64
2021/12/08 07:18:15;;;;;;;1.80;1.70;;;4.30;99.90;;;4.48;93.61;99054.25;5010323;28;20325;-64
2021/12/08 07:20:48;;;;;;;2.88;1.60;;;4.30;99.90;;;4.49;93.38;99074.00;5013862;28;20198;-64
2021/12/08 07:23:36;;;;;;;2.20;1.23;;;4.40;99.90;;;4.58;93.06;99084.47;5011931;28;20357;-64
2021/12/08 07:26:19;;;;;;;1.25;1.17;;;4.50;99.90;;;4.59;93.14;99087.88;5013093;28;20231;-64
2021/12/08 07:28:48;;;;;;;0.85;0.57;;;4.50;99.90;;;4.60;93.23;99098.09;5012176;28;20738;-62
2021/12/08 07:31:48;;;;;;;3.10;2.70;;;4.50;99.90;;;4.58;92.93;99074.13;5010295;28;20683;-62
2021/12/08 07:34:20;;;;;;;2.60;1.40;;;4.50;99.90;;;4.61;92.63;99070.53;5011684;28;20241;-63
2021/12/08 07:36:59;;;;;;;4.20;1.52;;;4.50;99.90;;;4.60;93.00;99067.09;5011182;28;20239;-63
2021/12/08 07:39:33;;;;;;;0.75;0.75;;;4.50;99.90;;;4.57;93.26;99067.34;5010158;28;20667;-63
2021/12/08 07:42:09;;;;;;;0.98;0.93;;;4.50;99.90;;;4.57;93.26;99061.34;5006080;28;20229;-63
2021/12/08 07:44:37;;;;;;;2.90;2.30;;;4.40;99.90;;;4.61;93.43;99058.44;5014279;28;20223;-63
2021/12/08 07:47:10;;;;;;;1.35;0.80;;;4.40;99.90;;;4.61;93.05;99050.69;5011573;28;20237;-63
2021/12/08 07:50:00;;;;;;;2.03;1.83;;;4.50;99.90;;;4.62;93.35;99047.16;5020170;28;20293;-64
2021/12/08 07:52:34;;;;;;;3.67;2.58;;;4.50;99.90;;;4.59;93.72;99059.47;5010287;28;20206;-63
2021/12/08 07:55:20;;;;;;;1.05;0.95;;;4.50;99.90;;;4.62;93.72;99065.22;5011229;28;20321;-63
2021/12/08 07:57:48;;;;;;;2.80;2.20;;;4.50;99.90;;;4.67;93.50;99065.75;5012627;28;20729;-63
2021/12/08 08:00:30;;;;;;;1.40;1.13;;;4.50;99.90;;;4.72;93.33;99055.06;5011583;28;20205;-63
2021/12/08 08:02:58;;;;;;;3.17;2.08;;;4.60;99.90;;;4.69;93.30;99048.38;5008481;28;20203;-61
2021/12/08 08:05:29;;;;;;;3.58;1.92;;;4.60;99.90;;;4.72;93.49;99040.41;5011166;28;20306;-63
2021/12/08 08:08:02;;;;;;;2.67;2.00;;;4.60;99.90;;;4.72;93.42;99043.00;5010075;28;20257;-63
2021/12/08 08:10:35;;;;;;;1.58;1.48;;;4.60;99.90;;;4.72;93.64;99050.75;5012218;28;20215;-63
2021/12/08 08:13:07;;;;;;;3.50;1.83;;;4.60;99.90;;;4.73;93.37;99042.03;5010226;28;20841;-63
2021/12/08 08:15:43;;;;;;;2.97;0.80;;;4.70;99.90;;;4.74;93.98;99037.69;5012272;28;20266;-64
2021/12/08 08:18:18;;;;;;;3.30;2.40;;;4.60;99.90;;;4.75;93.83;99035.94;5011203;28;20671;-63
2021/12/08 08:20:50;;;;;;;4.28;1.92;;;4.60;99.90;;;4.79;94.07;99039.94;5009803;28;20290;-64
2021/12/08 08:23:21;;;;;;;1.98;1.83;;;4.70;99.90;;;4.83;94.17;99049.94;5009712;28;20194;-64
2021/12/08 08:25:54;;;;;;;1.80;1.70;;;4.70;99.90;;;4.90;94.22;99056.31;5010480;28;20223;-64
2021/12/08 08:28:22;;;;;;;1.23;1.10;;;4.80;99.90;;;4.94;93.76;99065.47;4994202;28;20217;-64
2021/12/08 08:31:03;;;;;;;2.70;1.92;;;4.80;99.90;;;4.97;93.85;99077.34;5010242;28;20727;-64
2021/12/08 08:33:35;;;;;;;0.73;0.73;;;4.90;99.90;;;5.01;93.72;99078.75;5011534;28;20245;-64
2021/12/08 08:36:09;;;;;;;2.10;1.90;;;4.90;99.90;;;5.10;93.69;99075.50;5009956;28;20246;-64
2021/12/08 08:38:46;;;;;;;1.10;1.05;;;5.00;99.90;;;5.14;93.16;99076.94;5008050;28;20282;-64
2021/12/08 08:41:33;;;;;;;2.40;2.17;;;5.00;99.90;;;5.15;92.84;99068.25;5011197;28;20233;-64
2021/12/08 08:44:15;;;;;;;2.33;2.10;;;5.00;99.90;;;5.16;93.23;99068.13;5009044;28;20224;-64
2021/12/08 08:46:45;;;;;;;3.38;2.30;;;5.00;99.90;;;5.25;93.08;99075.22;5010403;28;20533;-64
2021/12/08 08:49:22;;;;;;;2.45;1.83;;;5.10;99.90;;;5.28;92.99;99084.50;5009154;28;20210;-66
2021/12/08 08:52:01;;;;;;;2.47;2.20;;;5.20;99.90;;;5.28;92.97;99090.47;5007613;28;20294;-64
2021/12/08 08:54:33;;;;;;;0.93;0.90;;;5.20;99.90;;;5.35;93.01;99078.75;5005972;28;20216;-64
2021/12/08 08:57:12;;;;;;;2.88;1.30;;;5.20;99.90;;;5.38;92.84;99083.69;5009109;28;20213;-66
2021/12/08 08:59:49;;;;;;;1.27;1.17;;;5.30;99.90;;;5.40;93.43;99086.16;5009777;28;20310;-64
2021/12/08 09:02:37;;;;;;;0.73;0.73;;;5.30;99.90;;;5.56;92.54;99089.22;5008544;28;20698;-64
2021/12/08 09:05:38;;;;;;;0.77;0.77;;;5.40;99.90;;;5.47;93.31;99077.81;5009259;28;20254;-64
2021/12/08 09:08:15;;;;;;;1.10;1.10;;;5.40;99.90;;;5.50;93.25;99074.19;5009954;28;20618;-64
2021/12/08 09:11:12;;;;;;;2.60;1.58;;;5.40;99.90;;;5.49;92.86;99072.53;5025201;28;20297;-64
2021/12/08 09:13:53;;;;;;;0.50;0.50;;;5.40;99.90;;;5.49;93.43;99073.34;5010034;28;20249;-64
2021/12/08 09:16:28;;;;;;;1.70;1.60;;;5.40;99.90;;;5.46;93.16;99070.19;5016153;28;20226;-64
2021/12/08 09:19:02;;;;;;;2.30;1.60;;;5.30;99.90;;;5.51;92.85;99061.13;5010078;28;20226;-64
2021/12/08 09:21:42;;;;;;;2.97;1.85;;;5.40;99.90;;;5.51;93.20;99078.44;5009798;28;20654;-64
2021/12/08 09:24:32;;;;;;;1.05;0.65;;;5.40;99.90;;;5.54;93.18;99080.75;5010533;28;20209;-64
2021/12/08 09:26:59;;;;;;;44.65;1.50;;;5.40;99.90;;;5.66;93.11;99097.97;5019352;28;20286;-64
2021/12/08 09:29:43;;;;;;;2.30;1.83;;;5.50;99.90;;;5.63;92.84;99100.78;5010089;28;20206;-64
2021/12/08 09:32:20;;;;;;;5.85;2.63;;;5.50;99.90;;;5.63;92.85;99095.59;5010280;28;20293;-64
2021/12/08 09:34:59;;;;;;;2.05;1.10;;;5.50;99.90;;;5.62;92.81;99116.41;5008386;28;20754;-64
2021/12/08 09:37:33;;;;;;;2.05;1.85;;;5.50;99.90;;;5.63;93.16;99107.69;5009797;28;20234;-64
2021/12/08 09:40:26;;;;;;;4.10;1.73;;;5.50;99.90;;;5.64;94.01;99115.38;5009401;28;20229;-64
2021/12/08 09:43:04;;;;;;;2.30;1.50;;;5.50;99.90;;;5.74;92.82;99118.91;5007663;28;20669;-64
2021/12/08 09:45:47;;;;;;;2.95;1.45;;;5.60;99.90;;;5.78;92.75;99124.66;5008235;28;20652;-64
2021/12/08 09:48:15;;;;;;;2.75;1.00;;;5.70;99.90;;;5.76;93.25;99139.47;5010219;28;20829;-63
2021/12/08 09:50:43;;;;;;;2.97;1.30;;;5.70;99.90;;;5.79;93.63;99142.66;5010721;28;20238;-65
2021/12/08 09:53:10;;;;;;;2.25;1.30;;;5.70;99.90;;;5.84;93.62;99140.56;5008098;28;21082;-65
2021/12/08 09:55:37;;;;;;;5.88;2.47;;;5.80;99.90;;;5.89;93.71;99142.81;5009870;28;20599;-63
2021/12/08 09:58:06;;;;;;;4.50;2.80;;;5.80;99.90;;;5.86;93.25;99133.50;5009335;28;20696;-63
2021/12/08 10:00:39;;;;;;;2.83;2.20;;;5.70;99.90;;;5.86;93.76;99123.16;5008481;28;20637;-63
2021/12/08 10:03:06;;;;;;;5.07;3.78;;;5.70;99.90;;;5.81;94.77;99129.63;5010097;28;20199;-63
2021/12/08 10:05:39;;;;;;;2.45;2.28;;;5.70;99.90;;;5.83;95.02;99125.97;5009983;28;20768;-63
2021/12/08 10:08:08;;;;;;;6.80;3.05;;;5.70;99.90;;;5.85;95.08;99121.53;5015398;28;20741;-62
2021/12/08 10:10:38;;;;;;;4.60;3.00;;;5.70;99.90;;;5.88;94.70;99121.28;5011874;28;20774;-63
2021/12/08 10:13:06;;;;;;;2.67;2.30;;;5.80;99.90;;;5.90;95.29;99114.22;5014074;28;20704;-63
2021/12/08 10:15:34;;;;;;;2.80;1.88;;;5.80;99.90;;;5.90;94.94;99123.78;5011296;28;20649;-62
2021/12/08 10:18:01;;;;;;;2.00;1.80;;;5.70;99.90;;;5.92;94.56;99124.47;5011525;28;20581;-62
2021/12/08 10:20:38;;;;;;;5.60;3.10;;;5.80;99.90;;;5.96;95.68;99111.16;5013576;28;20749;-63
2021/12/08 10:23:11;;;;;;;2.83;2.60;;;5.80;99.90;;;5.90;95.95;99118.59;5011461;28;21041;-63
2021/12/08 10:25:51;;;;;;;6.72;3.13;;;5.80;99.90;;;5.94;96.50;99115.63;5011721;28;20656;-62
2021/12/08 10:28:30;;;;;;;8.63;2.57;;;5.80;99.90;;;5.91;96.40;99115.06;5010997;28;20226;-62
2021/12/08 10:31:24;;;;;;;3.90;2.53;;;5.80;99.90;;;5.88;97.30;99104.91;5012744;28;20655;-61
2021/12/08 10:37:05;;;;;;;1.13;1.00;;;5.80;99.90;;;5.92;97.24;99104.56;5009363;28;21109;-64
2021/12/08 10:39:41;;;;;;;2.43;2.17;;;5.80;99.90;;;5.97;97.01;99109.41;5013129;28;20214;-64
2021/12/08 10:42:22;;;;;;;7.90;4.13;;;5.80;99.90;;;6.06;95.64;99103.50;5010027;28;20735;-62
2021/12/08 10:47:58;;;;;;;3.40;2.53;;;6.00;99.90;;;6.01;95.56;99090.94;5012863;28;20203;-62
2021/12/08 10:56:24;;;;;;;5.73;2.83;;;6.00;99.90;;;6.17;95.34;99081.03;5000975;28;20756;-63
2021/12/08 10:58:57;;;;;;;3.33;1.63;;;6.10;99.90;;;6.18;95.85;99072.31;5006315;28;20665;-64
2021/12/08 11:01:27;;;;;;;5.60;2.00;;;6.00;99.90;;;6.17;95.93;99081.03;5008560;28;20639;-61
2021/12/08 11:04:08;;;;;;;6.80;4.40;;;6.00;99.90;;;6.22;95.52;99078.06;5011963;28;20736;-63
2021/12/08 11:06:38;;;;;;;3.50;2.53;;;6.10;99.90;;;6.22;95.31;99084.06;5008172;28;20680;-63
2021/12/08 11:09:19;;;;;;;5.40;3.77;;;6.20;99.90;;;6.34;95.49;99092.66;5008620;28;20693;-63
2021/12/08 11:11:48;;;;;;;8.18;4.03;;;6.20;99.90;;;6.37;94.34;99087.22;5011275;28;20647;-63
2021/12/08 11:14:15;;;;;;;2.70;2.43;;;6.20;99.90;;;6.40;93.99;99091.34;5010374;28;20294;-63
2021/12/08 11:16:44;;;;;;;2.03;1.67;;;6.30;99.90;;;6.45;94.21;99102.16;5011649;28;20652;-63
2021/12/08 11:19:21;;;;;;;8.03;3.13;;;6.30;99.90;;;6.48;93.70;99100.16;5010058;28;20762;-62
2021/12/08 11:21:54;;;;;;;5.15;2.63;;;6.30;99.90;;;6.45;93.66;99097.00;5002119;28;20629;-62
2021/12/08 11:24:33;;;;;;;1.77;1.63;;;6.30;99.90;;;6.28;94.74;99091.34;5011682;28;20666;-62
2021/12/08 11:27:05;;;;;;;1.80;1.70;;;6.30;99.90;;;6.39;94.70;99097.47;5010226;28;20741;-62
2021/12/08 11:29:37;;;;;;;5.70;3.77;;;6.20;99.90;;;6.41;94.17;99093.81;5013456;28;20629;-63
2021/12/08 11:32:08;;;;;;;3.30;3.10;;;6.30;99.90;;;6.42;94.66;99090.28;5013957;28;20613;-63
2021/12/08 11:34:42;;;;;;;4.83;3.00;;;6.30;99.90;;;6.45;94.77;99086.63;5013299;28;21207;-63
2021/12/08 11:37:19;;;;;;;6.30;3.27;;;6.30;99.90;;;6.47;94.35;99076.97;5013535;28;20720;-63
2021/12/08 11:39:58;;;;;;;6.13;3.60;;;6.30;99.90;;;6.48;93.37;99076.84;5013914;28;20663;-63
2021/12/08 11:42:33;;;;;;;4.73;3.30;;;6.40;99.90;;;6.50;94.10;99076.69;5012937;28;21169;-64
2021/12/08 11:45:12;;;;;;;16.67;7.80;;;6.30;99.90;;;6.52;93.93;99082.59;5012260;28;20665;-64
2021/12/08 11:47:40;;;;;;;11.80;5.73;;;6.40;99.90;;;6.59;93.53;99083.75;5012828;28;20656;-63
2021/12/08 11:50:12;;;;;;;6.70;4.00;;;6.40;99.90;;;6.62;93.05;99073.16;5013394;28;20632;-62
2021/12/08 11:52:40;;;;;;;2.00;1.20;;;6.50;99.90;;;6.63;93.78;99073.03;5013849;28;20626;-62
2021/12/08 11:55:20;;;;;;;5.50;3.70;;;6.50;99.90;;;6.49;94.13;99070.72;5013806;28;20641;-62
2021/12/08 11:57:57;;;;;;;2.10;1.73;;;6.40;99.90;;;6.47;94.60;99075.22;5013959;28;20617;-64